Terminal Aerodrome Forecast
Issued by NWS

Current Version | Previous Version | Graphics & Text | Print | Product List | Glossary On
Versions: 1 2 3 4 5 6 7 8 9 10 11 12 13 14 15 16 17 18 19 20 21 22 23 24 25 26 27 28 29
000
FTUS41 KILN 161200 AAA
TAFLUK
TAF AMD
KLUK 161223Z 1612/1712 01006KT P6SM OVC015
     FM161800 01006KT P6SM BKN025
     FM162000 01004KT P6SM SCT035
     FM170000 VRB02KT P6SM SKC
     FM170500 00000KT 4SM BR SKC
     FM170700 00000KT 1/4SM FG VV002=

USA.gov is the U.S. government's official web portal to all federal, state and local government web resources and services.